Time;durP1;ratioP1;P1;durP2;ratioP2;P2;SDS_P1;SDS_P2;PMS_P1;PMS_P2;Temp;Humidity;BMP_temperature;BMP_pressure;BME280_temperature;BME280_humidity;BME280_pressure;Samples;Min_cycle;Max_cycle;Signal;HPM_P1;HPM_P2
2022/02/01 00:02:11;;;;;;;22.88;2.70;;;2.90;99.90;;;;;;5077275;28;20174;-69
2022/02/01 00:12:23;;;;;;;18.38;3.72;;;2.90;99.90;;;;;;5058157;28;20045;-69
2022/02/01 00:20:34;;;;;;;14.75;2.80;;;2.90;99.90;;;;;;5086013;28;20077;-69
2022/02/01 00:34:11;;;;;;;20.38;2.50;;;3.00;99.90;;;;;;5078187;28;20055;-69
2022/02/01 00:36:48;;;;;;;18.15;3.35;;;3.10;99.90;;;;;;5073287;28;20113;-69
2022/02/01 00:39:15;;;;;;;11.60;2.13;;;3.20;99.90;;;;;;5101598;28;20403;-69
2022/02/01 00:41:51;;;;;;;18.60;3.03;;;3.20;99.90;;;;;;5078058;28;20075;-69
2022/02/01 00:44:20;;;;;;;14.40;2.67;;;3.20;99.90;;;;;;5104178;28;20048;-69
2022/02/01 00:46:47;;;;;;;26.95;3.80;;;3.20;99.90;;;;;;5104183;28;20095;-69
2022/02/01 00:49:13;;;;;;;16.23;2.55;;;3.20;99.90;;;;;;5094311;28;20077;-69
2022/02/01 00:51:38;;;;;;;15.27;2.30;;;3.20;99.90;;;;;;5082386;28;20048;-69
2022/02/01 00:54:04;;;;;;;17.67;3.08;;;3.30;99.90;;;;;;5080773;28;20051;-68
2022/02/01 00:56:30;;;;;;;14.20;2.53;;;3.20;99.90;;;;;;5086736;28;20495;-69
2022/02/01 00:58:56;;;;;;;17.23;2.55;;;3.20;99.90;;;;;;5080644;28;20095;-69
2022/02/01 01:01:22;;;;;;;18.42;2.67;;;3.20;99.90;;;;;;5082942;28;20442;-69
2022/02/01 01:03:48;;;;;;;20.08;2.72;;;3.20;99.90;;;;;;5078190;28;20066;-69
2022/02/01 01:06:15;;;;;;;15.43;2.35;;;3.30;99.90;;;;;;5083504;28;20053;-69
2022/02/01 01:08:42;;;;;;;15.60;2.40;;;3.40;99.90;;;;;;5086684;28;20117;-69
2022/02/01 01:11:09;;;;;;;23.80;2.70;;;3.30;99.90;;;;;;5086854;28;20060;-69
2022/02/01 01:43:40;;;;;;;15.95;2.78;;;3.50;99.90;;;;;;5085060;28;20075;-69
2022/02/01 01:54:20;;;;;;;22.80;3.13;;;3.30;99.90;;;;;;5068714;28;20048;-69
2022/02/01 01:56:47;;;;;;;17.08;2.55;;;3.40;99.90;;;;;;5061674;28;20052;-69
2022/02/01 01:59:13;;;;;;;16.85;2.15;;;3.40;99.90;;;;;;5068792;28;20053;-69
2022/02/01 02:01:40;;;;;;;14.35;1.92;;;3.40;99.90;;;;;;5064711;28;20043;-69
2022/02/01 02:04:07;;;;;;;16.40;2.30;;;3.40;99.90;;;;;;5065382;28;20128;-68
2022/02/01 02:06:33;;;;;;;18.08;2.80;;;3.50;99.90;;;;;;5065317;28;20059;-69
2022/02/01 02:09:02;;;;;;;10.90;1.92;;;3.40;99.90;;;;;;5063823;28;20566;-69
2022/02/01 02:16:51;;;;;;;13.82;2.67;;;3.40;99.90;;;;;;5072138;28;20055;-69
2022/02/01 02:19:18;;;;;;;18.38;3.15;;;3.50;99.90;;;;;;5070326;28;20055;-69
2022/02/01 02:22:05;;;;;;;20.15;3.00;;;3.40;99.90;;;;;;5064298;28;20049;-68
2022/02/01 02:24:33;;;;;;;16.95;2.45;;;3.40;99.90;;;;;;5058229;28;20508;-69
2022/02/01 02:27:00;;;;;;;16.23;2.38;;;3.30;99.90;;;;;;5062572;28;20516;-68
2022/02/01 02:29:26;;;;;;;16.00;2.78;;;3.40;99.90;;;;;;5074021;28;20041;-69
2022/02/01 02:31:52;;;;;;;13.05;2.45;;;3.40;99.90;;;;;;5052819;28;20116;-69
2022/02/01 02:34:19;;;;;;;11.52;1.90;;;3.30;99.90;;;;;;5079702;28;20102;-69
2022/02/01 02:36:53;;;;;;;15.05;2.72;;;3.30;99.90;;;;;;5067593;28;20091;-69
2022/02/01 02:39:27;;;;;;;16.70;3.53;;;3.30;99.90;;;;;;5057968;28;20048;-68
2022/02/01 02:42:13;;;;;;;17.20;3.33;;;3.40;99.90;;;;;;5063417;28;20842;-69
2022/02/01 02:47:29;;;;;;;19.45;2.58;;;3.40;99.90;;;;;;5096161;28;20047;-69
2022/02/01 02:49:55;;;;;;;9.95;1.70;;;3.30;99.90;;;;;;5053876;28;20045;-69
2022/02/01 02:52:23;;;;;;;13.95;2.10;;;3.30;99.90;;;;;;5065636;28;20392;-69
2022/02/01 02:54:49;;;;;;;17.85;2.15;;;3.40;99.90;;;;;;5070459;28;20501;-69
2022/02/01 02:57:14;;;;;;;13.48;2.40;;;3.30;99.90;;;;;;5062350;28;20045;-69
2022/02/01 02:59:40;;;;;;;18.63;2.58;;;3.40;99.90;;;;;;5055941;28;20097;-69
2022/02/01 03:02:07;;;;;;;14.35;2.33;;;3.40;99.90;;;;;;5059895;28;20103;-69
2022/02/01 03:04:35;;;;;;;26.17;3.20;;;3.50;99.90;;;;;;5085597;28;20055;-69
2022/02/01 03:07:03;;;;;;;11.77;2.10;;;3.40;99.90;;;;;;5060624;28;20052;-69
2022/02/01 03:09:30;;;;;;;13.48;1.95;;;3.50;99.90;;;;;;5062156;28;20056;-69
2022/02/01 03:11:59;;;;;;;13.23;2.65;;;3.60;99.90;;;;;;5067567;28;20044;-69
2022/02/01 03:14:28;;;;;;;14.18;1.88;;;3.50;99.90;;;;;;5099763;28;20056;-69
2022/02/01 03:17:10;;;;;;;11.85;2.33;;;3.70;99.90;;;;;;5090515;28;20056;-69
2022/02/01 03:19:56;;;;;;;16.65;2.72;;;3.80;99.90;;;;;;5064842;28;20048;-68
2022/02/01 03:22:25;;;;;;;7.40;1.63;;;3.70;99.90;;;;;;5083641;28;20048;-69
2022/02/01 03:24:53;;;;;;;14.70;2.40;;;3.90;99.90;;;;;;5071096;28;20044;-69
2022/02/01 03:27:19;;;;;;;11.63;2.40;;;3.90;99.90;;;;;;5100559;28;20118;-69
2022/02/01 03:29:45;;;;;;;12.98;1.80;;;3.90;99.90;;;;;;5079731;28;20051;-69
2022/02/01 03:32:11;;;;;;;16.83;2.33;;;3.90;99.90;;;;;;5065397;28;20055;-69
2022/02/01 03:34:37;;;;;;;14.10;1.75;;;4.00;99.90;;;;;;5075240;28;20048;-69
2022/02/01 03:37:04;;;;;;;9.48;2.78;;;3.90;99.90;;;;;;5110664;28;20048;-69
2022/02/01 03:39:29;;;;;;;12.57;1.70;;;3.90;99.90;;;;;;5083714;28;20416;-69
2022/02/01 03:41:55;;;;;;;14.35;2.38;;;3.80;99.90;;;;;;5077284;28;20048;-69
2022/02/01 03:44:21;;;;;;;14.70;2.38;;;3.80;99.90;;;;;;5082731;28;20048;-69
2022/02/01 03:47:01;;;;;;;11.23;1.50;;;3.80;99.90;;;;;;5084111;28;20051;-69
2022/02/01 03:49:38;;;;;;;11.27;2.00;;;3.70;99.90;;;;;;5080781;28;20055;-69
2022/02/01 03:52:05;;;;;;;10.00;2.20;;;3.80;99.90;;;;;;5070842;28;20044;-69
2022/02/01 03:54:32;;;;;;;11.38;2.10;;;3.70;99.90;;;;;;5080932;28;20143;-69
2022/02/01 03:56:59;;;;;;;11.32;2.15;;;3.60;99.90;;;;;;5074930;28;20059;-69
2022/02/01 03:59:25;;;;;;;15.35;1.77;;;3.60;99.90;;;;;;5069573;28;20049;-69
2022/02/01 04:01:55;;;;;;;12.57;2.17;;;3.50;99.90;;;;;;5067828;28;20047;-69
2022/02/01 04:04:22;;;;;;;8.57;1.92;;;3.60;99.90;;;;;;5056213;28;20445;-69
2022/02/01 04:06:48;;;;;;;15.07;2.40;;;3.50;99.90;;;;;;5076194;28;20412;-69
2022/02/01 04:09:14;;;;;;;11.90;1.80;;;3.50;99.90;;;;;;5078252;28;20122;-69
2022/02/01 04:11:40;;;;;;;13.43;2.20;;;3.50;99.90;;;;;;5086553;28;20478;-69
2022/02/01 04:14:06;;;;;;;11.20;1.80;;;3.60;99.90;;;;;;5068098;28;20112;-69
2022/02/01 04:16:31;;;;;;;12.13;1.92;;;3.50;99.90;;;;;;5043936;28;20097;-69
2022/02/01 04:19:01;;;;;;;9.90;1.63;;;3.50;99.90;;;;;;5063721;28;20517;-69
2022/02/01 04:21:27;;;;;;;12.20;1.85;;;3.50;99.90;;;;;;5054246;28;20049;-69
2022/02/01 04:23:53;;;;;;;6.38;1.92;;;3.50;99.90;;;;;;5046237;28;20045;-69
2022/02/01 04:26:18;;;;;;;8.90;2.42;;;3.60;99.90;;;;;;5064132;28;20059;-69
2022/02/01 04:28:44;;;;;;;10.73;1.48;;;3.60;99.90;;;;;;5063000;28;20076;-69
2022/02/01 04:31:10;;;;;;;8.77;1.35;;;3.70;99.90;;;;;;5062633;28;20394;-69
2022/02/01 04:33:35;;;;;;;9.48;1.50;;;3.60;99.90;;;;;;5060880;28;20066;-69
2022/02/01 04:36:02;;;;;;;8.10;1.90;;;3.60;99.90;;;;;;5066044;28;20079;-69
2022/02/01 04:38:28;;;;;;;11.02;1.60;;;3.60;99.90;;;;;;5066263;28;20102;-69
2022/02/01 04:40:54;;;;;;;7.85;1.67;;;3.60;99.90;;;;;;5058056;28;20053;-69
2022/02/01 04:43:21;;;;;;;11.68;2.10;;;3.60;99.90;;;;;;5061445;28;20068;-69
2022/02/01 04:45:47;;;;;;;16.13;2.10;;;3.60;99.90;;;;;;5084482;28;20090;-69
2022/02/01 04:48:13;;;;;;;12.30;1.95;;;3.70;99.90;;;;;;5063097;28;20121;-69
2022/02/01 04:50:39;;;;;;;13.00;2.05;;;3.70;99.90;;;;;;5062679;28;20056;-69
2022/02/01 04:53:05;;;;;;;9.02;1.40;;;3.80;99.90;;;;;;5060331;28;20041;-68
2022/02/01 04:58:12;;;;;;;13.52;1.88;;;3.80;99.90;;;;;;5083539;28;20100;-69
2022/02/01 05:00:38;;;;;;;13.63;1.73;;;3.90;99.90;;;;;;5062542;28;20049;-69
2022/02/01 05:03:04;;;;;;;10.05;1.98;;;3.80;99.90;;;;;;5079507;28;20061;-69
2022/02/01 05:05:29;;;;;;;7.85;1.63;;;3.90;99.90;;;;;;5050857;28;20052;-69
2022/02/01 05:08:00;;;;;;;13.30;2.22;;;4.00;99.90;;;;;;5087396;28;20040;-69
2022/02/01 05:10:28;;;;;;;13.90;1.60;;;3.90;99.90;;;;;;5069714;28;20048;-68
2022/02/01 05:12:56;;;;;;;12.07;2.35;;;4.00;99.90;;;;;;5068694;28;20052;-69
2022/02/01 05:15:22;;;;;;;9.95;1.35;;;4.00;99.90;;;;;;5074955;28;20048;-68
2022/02/01 05:17:54;;;;;;;13.98;1.63;;;4.10;99.90;;;;;;5087499;28;20059;-68
2022/02/01 05:20:30;;;;;;;9.30;1.63;;;3.90;99.90;;;;;;5095184;28;20099;-68
2022/02/01 05:22:55;;;;;;;11.45;2.95;;;4.10;99.90;;;;;;5100780;28;20131;-69
2022/02/01 05:25:27;;;;;;;11.00;2.13;;;4.10;99.90;;;;;;5079298;28;20424;-69
2022/02/01 05:27:56;;;;;;;13.77;2.00;;;4.10;99.90;;;;;;5084521;28;20087;-69
2022/02/01 05:30:22;;;;;;;12.32;1.80;;;4.10;99.90;;;;;;5087094;28;20040;-69
2022/02/01 05:32:47;;;;;;;13.77;2.17;;;4.20;99.90;;;;;;5045221;28;20476;-69
2022/02/01 05:35:13;;;;;;;9.13;1.77;;;4.20;99.90;;;;;;5084827;28;20040;-67
2022/02/01 05:37:39;;;;;;;9.20;1.95;;;4.20;99.90;;;;;;5087725;28;20086;-67
2022/02/01 05:40:08;;;;;;;12.32;1.92;;;4.20;99.90;;;;;;5100105;28;20040;-70
2022/02/01 05:42:44;;;;;;;13.00;2.65;;;4.20;99.90;;;;;;5120304;28;20064;-67
2022/02/01 05:45:11;;;;;;;17.48;2.58;;;4.10;99.90;;;;;;5051707;28;20043;-67
2022/02/01 05:47:37;;;;;;;15.88;2.17;;;4.20;99.90;;;;;;5068191;28;20063;-66
2022/02/01 05:50:03;;;;;;;12.50;2.47;;;4.20;99.90;;;;;;5068690;28;20051;-65
2022/02/01 05:52:29;;;;;;;14.68;2.28;;;4.10;99.90;;;;;;5074808;28;20051;-66
2022/02/01 05:54:54;;;;;;;9.63;1.90;;;4.20;99.90;;;;;;5109931;28;20053;-66
2022/02/01 05:57:20;;;;;;;15.32;1.90;;;4.20;99.90;;;;;;5080991;28;20051;-65
2022/02/01 05:59:46;;;;;;;12.48;2.53;;;4.20;99.90;;;;;;5070337;28;20048;-66
2022/02/01 06:02:11;;;;;;;12.35;2.30;;;4.30;99.90;;;;;;5067859;28;20044;-66
2022/02/01 06:04:37;;;;;;;14.25;2.25;;;4.30;99.90;;;;;;5089210;28;20140;-67
2022/02/01 06:07:03;;;;;;;20.48;2.17;;;4.30;99.90;;;;;;5092822;28;20063;-67
2022/02/01 06:09:28;;;;;;;11.82;2.30;;;4.20;99.90;;;;;;5050717;28;20075;-67
2022/02/01 06:11:54;;;;;;;15.35;2.50;;;4.30;99.90;;;;;;5072513;28;20055;-67
2022/02/01 06:14:20;;;;;;;15.82;3.60;;;4.30;99.90;;;;;;5053304;28;20127;-68
2022/02/01 06:16:45;;;;;;;9.73;2.10;;;4.20;99.90;;;;;;5055289;28;20099;-67
2022/02/01 06:19:11;;;;;;;11.60;2.85;;;4.30;99.90;;;;;;5038008;28;20560;-70
2022/02/01 06:21:37;;;;;;;22.77;2.88;;;4.30;99.90;;;;;;5026366;28;20045;-67
2022/02/01 06:24:06;;;;;;;11.80;2.30;;;4.40;99.90;;;;;;5057877;28;20049;-70
2022/02/01 06:26:32;;;;;;;13.38;2.50;;;4.40;99.90;;;;;;5042525;28;20052;-70
2022/02/01 06:28:58;;;;;;;16.10;2.88;;;4.30;99.90;;;;;;5047166;28;20933;-70
2022/02/01 06:31:23;;;;;;;12.15;1.98;;;4.40;99.90;;;;;;5048937;28;20143;-70
2022/02/01 06:33:49;;;;;;;18.85;3.50;;;4.40;99.90;;;;;;5030571;28;20111;-70
2022/02/01 06:36:15;;;;;;;18.23;3.00;;;4.40;99.90;;;;;;5060845;28;20048;-69
2022/02/01 06:38:40;;;;;;;23.15;2.90;;;4.50;99.90;;;;;;5041017;28;20060;-70
2022/02/01 06:41:06;;;;;;;15.15;2.50;;;4.40;99.90;;;;;;5045133;28;20445;-68
2022/02/01 06:43:32;;;;;;;12.60;2.60;;;4.60;99.90;;;;;;5058866;28;20079;-65
2022/02/01 06:46:00;;;;;;;15.23;2.88;;;4.50;99.90;;;;;;5041483;28;20048;-64
2022/02/01 06:48:26;;;;;;;14.77;2.70;;;4.50;99.90;;;;;;5053780;28;20041;-64
2022/02/01 06:50:52;;;;;;;16.05;2.47;;;4.50;99.90;;;;;;5039845;28;20041;-64
2022/02/01 06:53:20;;;;;;;21.70;3.08;;;4.50;99.90;;;;;;5053526;28;20049;-64
2022/02/01 06:55:58;;;;;;;13.27;3.22;;;4.50;99.90;;;;;;5040113;28;20124;-64
2022/02/01 06:58:24;;;;;;;14.88;3.30;;;4.60;99.90;;;;;;5060446;28;20044;-65
2022/02/01 07:00:50;;;;;;;12.68;2.67;;;4.60;99.90;;;;;;5029027;28;20146;-65
2022/02/01 07:03:15;;;;;;;14.23;2.65;;;4.60;99.90;;;;;;5054724;28;20538;-65
2022/02/01 07:05:41;;;;;;;15.70;3.50;;;4.60;99.90;;;;;;5044400;28;20037;-66
2022/02/01 07:08:07;;;;;;;16.05;3.80;;;4.70;99.90;;;;;;5053022;28;20049;-65
2022/02/01 07:10:33;;;;;;;14.52;3.40;;;4.70;99.90;;;;;;5065390;28;20048;-65
2022/02/01 07:12:59;;;;;;;18.67;4.03;;;4.70;99.90;;;;;;5040455;28;20528;-65
2022/02/01 07:15:25;;;;;;;17.85;3.90;;;4.50;99.90;;;;;;5061322;28;20049;-65
2022/02/01 07:17:54;;;;;;;18.42;4.75;;;4.60;99.90;;;;;;5050372;28;20044;-65
2022/02/01 07:20:21;;;;;;;15.43;3.67;;;4.50;99.90;;;;;;5051359;28;20108;-64
2022/02/01 07:22:48;;;;;;;23.75;4.85;;;4.50;99.90;;;;;;5058487;28;20136;-65
2022/02/01 07:25:44;;;;;;;22.33;4.53;;;4.40;99.90;;;;;;5079167;28;20052;-64
2022/02/01 07:28:04;;;;;;;;;;;4.40;99.90;;;;;;5057229;28;20070;-65
2022/02/01 07:30:31;;;;;;;31.48;5.45;;;4.50;99.90;;;;;;5081175;28;19931;-65
2022/02/01 07:32:59;;;;;;;23.05;4.80;;;4.40;99.90;;;;;;5031238;28;20164;-65
2022/02/01 07:35:26;;;;;;;20.42;4.55;;;4.40;99.90;;;;;;5082014;28;20275;-64
2022/02/01 07:37:53;;;;;;;22.88;4.97;;;4.30;99.90;;;;;;5085372;28;20055;-65
2022/02/01 07:40:19;;;;;;;25.20;6.15;;;4.20;99.90;;;;;;5082844;28;20041;-65
2022/02/01 07:42:45;;;;;;;26.88;5.85;;;4.20;99.90;;;;;;5052205;28;20076;-65
2022/02/01 07:45:13;;;;;;;21.45;6.50;;;4.20;99.90;;;;;;5052046;28;20045;-65
2022/02/01 07:47:39;;;;;;;28.90;6.47;;;4.20;99.90;;;;;;5032929;28;20049;-65
2022/02/01 07:50:06;;;;;;;22.63;5.10;;;4.30;99.90;;;;;;5060302;28;20152;-65
2022/02/01 07:52:32;;;;;;;26.10;6.78;;;4.40;99.90;;;;;;5057273;28;20056;-64
2022/02/01 07:54:57;;;;;;;23.73;5.50;;;4.30;99.90;;;;;;5080532;28;20082;-64
2022/02/01 07:57:23;;;;;;;21.92;6.95;;;4.30;99.90;;;;;;5074890;28;20064;-64
2022/02/01 07:59:49;;;;;;;21.85;6.38;;;4.40;99.90;;;;;;5078214;28;20063;-64
2022/02/01 08:02:25;;;;;;;17.05;5.82;;;4.60;99.90;;;;;;5059247;28;20480;-64
2022/02/01 08:04:57;;;;;;;19.20;7.53;;;4.50;99.90;;;;;;5094782;28;20075;-65
2022/02/01 08:07:23;;;;;;;22.08;7.68;;;4.40;99.90;;;;;;5062964;28;20105;-64
2022/02/01 08:09:54;;;;;;;24.70;8.55;;;4.60;99.90;;;;;;5092615;28;20058;-65
2022/02/01 08:17:58;;;;;;;17.63;7.93;;;4.50;99.90;;;;;;5057573;28;20128;-64
2022/02/01 08:20:35;;;;;;;20.00;9.27;;;4.60;99.90;;;;;;5071520;28;20158;-64
2022/02/01 08:23:02;;;;;;;16.20;7.65;;;4.50;99.90;;;;;;5063561;28;20037;-64
2022/02/01 08:25:32;;;;;;;17.48;8.15;;;4.60;99.90;;;;;;5055962;28;20047;-64
2022/02/01 08:28:01;;;;;;;19.55;8.32;;;4.70;99.90;;;;;;5063038;28;20139;-65
2022/02/01 08:30:27;;;;;;;16.98;7.78;;;4.80;99.90;;;;;;5056825;28;20040;-65
2022/02/01 08:32:53;;;;;;;15.63;9.02;;;4.70;99.90;;;;;;5050096;28;20052;-64
2022/02/01 08:35:19;;;;;;;14.15;8.18;;;4.70;99.90;;;;;;5066455;28;20059;-65
2022/02/01 08:37:46;;;;;;;20.17;8.30;;;4.70;99.90;;;;;;5088334;28;20076;-64
2022/02/01 08:40:13;;;;;;;20.15;9.57;;;4.80;99.90;;;;;;5072636;28;20063;-64
2022/02/01 08:42:43;;;;;;;16.52;7.70;;;4.80;99.90;;;;;;5035861;28;20049;-64
2022/02/01 08:45:10;;;;;;;18.10;9.32;;;4.90;99.90;;;;;;5063900;28;20146;-64
2022/02/01 08:47:36;;;;;;;15.18;8.25;;;4.80;99.90;;;;;;5060021;28;20044;-64
2022/02/01 08:50:02;;;;;;;15.68;8.90;;;4.90;99.90;;;;;;5061313;28;20201;-65
2022/02/01 08:52:38;;;;;;;16.50;9.30;;;5.00;99.90;;;;;;5066411;28;20363;-64
2022/02/01 08:55:06;;;;;;;16.00;9.18;;;5.10;99.90;;;;;;5061895;28;20043;-64
2022/02/01 08:57:32;;;;;;;18.95;10.13;;;4.90;99.90;;;;;;5064185;28;20198;-64
2022/02/01 09:00:08;;;;;;;17.38;10.73;;;5.00;99.90;;;;;;5081663;28;20106;-64
2022/02/01 09:02:34;;;;;;;17.00;10.95;;;5.20;99.90;;;;;;5059633;28;20562;-64
2022/02/01 09:05:00;;;;;;;20.83;12.68;;;5.20;99.90;;;;;;5078867;28;20078;-64
2022/02/01 09:07:27;;;;;;;19.50;11.93;;;5.20;99.90;;;;;;5075698;28;20075;-64
2022/02/01 09:09:55;;;;;;;18.75;12.57;;;5.10;99.90;;;;;;5068208;28;20048;-64
2022/02/01 09:12:21;;;;;;;21.00;11.85;;;5.20;99.90;;;;;;5055684;28;20060;-64
2022/02/01 09:14:47;;;;;;;18.50;13.20;;;5.10;99.90;;;;;;5064770;28;20053;-64
2022/02/01 09:17:16;;;;;;;17.58;11.32;;;5.30;99.90;;;;;;5043127;28;20048;-64
2022/02/01 09:19:42;;;;;;;18.58;11.93;;;5.30;99.90;;;;;;5069324;28;20518;-64
2022/02/01 09:22:10;;;;;;;14.02;11.15;;;5.40;99.90;;;;;;5057695;28;20057;-64
2022/02/01 09:24:35;;;;;;;17.20;11.43;;;5.20;99.90;;;;;;5052400;28;21430;-64
2022/02/01 09:27:01;;;;;;;17.10;11.70;;;5.40;99.90;;;;;;5047273;28;20098;-64
2022/02/01 09:29:27;;;;;;;15.23;10.35;;;5.40;99.90;;;;;;5045087;28;20049;-64
2022/02/01 09:31:54;;;;;;;15.18;10.82;;;5.40;99.90;;;;;;5050454;28;20067;-63
2022/02/01 09:34:21;;;;;;;15.18;10.15;;;5.40;99.90;;;;;;5036855;28;20052;-65
2022/02/01 09:36:49;;;;;;;12.88;9.18;;;5.60;99.90;;;;;;5068890;28;20049;-64
2022/02/01 09:39:14;;;;;;;11.85;9.02;;;5.70;99.90;;;;;;5034857;28;20148;-63
2022/02/01 09:41:41;;;;;;;12.77;9.15;;;5.70;99.90;;;;;;5050395;28;20548;-63
2022/02/01 09:44:07;;;;;;;12.30;8.10;;;5.60;99.90;;;;;;5038298;28;20052;-64
2022/02/01 09:46:37;;;;;;;11.63;7.40;;;5.60;99.90;;;;;;5065706;28;20066;-64
2022/02/01 09:49:09;;;;;;;10.03;7.13;;;5.80;99.90;;;;;;5037639;28;20129;-63
2022/02/01 09:51:35;;;;;;;9.88;6.75;;;5.70;99.90;;;;;;5072674;28;20061;-63
2022/02/01 09:54:01;;;;;;;12.52;7.72;;;5.70;99.90;;;;;;5055983;28;20052;-64
2022/02/01 09:56:29;;;;;;;10.90;6.97;;;5.70;99.90;;;;;;5073218;28;20064;-63
2022/02/01 09:58:56;;;;;;;7.65;5.70;;;5.90;99.90;;;;;;5070458;28;20044;-63
2022/02/01 10:01:26;;;;;;;8.38;6.28;;;5.90;99.90;;;;;;5052997;28;20082;-63
2022/02/01 10:04:07;;;;;;;9.80;6.53;;;6.00;99.90;;;;;;5056930;28;20094;-63
2022/02/01 10:06:38;;;;;;;9.07;5.97;;;5.80;99.90;;;;;;5022470;28;20037;-63
2022/02/01 10:09:04;;;;;;;9.40;5.93;;;6.00;99.90;;;;;;5042340;28;20049;-64
2022/02/01 10:11:37;;;;;;;10.20;5.72;;;6.20;99.90;;;;;;5079550;28;20060;-63
2022/02/01 10:14:05;;;;;;;10.07;5.90;;;6.00;99.90;;;;;;5058769;28;20132;-64
2022/02/01 10:16:33;;;;;;;8.27;5.43;;;6.10;99.90;;;;;;5062515;28;20052;-64
2022/02/01 10:19:07;;;;;;;8.02;4.93;;;6.20;99.90;;;;;;5070982;28;20057;-64
2022/02/01 10:21:33;;;;;;;8.98;5.18;;;6.10;99.90;;;;;;5063708;28;20306;-63
2022/02/01 10:24:06;;;;;;;7.82;5.10;;;6.30;99.90;;;;;;5063418;28;20044;-64
2022/02/01 10:26:35;;;;;;;7.75;4.47;;;6.20;99.90;;;;;;5057877;28;20632;-64
2022/02/01 10:29:04;;;;;;;6.10;3.92;;;6.30;99.90;;;;;;5090756;28;20044;-64
2022/02/01 10:31:43;;;;;;;6.33;3.90;;;6.50;99.90;;;;;;5077761;28;20056;-64
2022/02/01 10:34:28;;;;;;;5.97;4.00;;;6.50;99.90;;;;;;5071700;28;20066;-64
2022/02/01 10:37:03;;;;;;;4.57;3.20;;;6.50;99.90;;;;;;5062670;28;20052;-64
2022/02/01 10:39:31;;;;;;;4.68;2.83;;;6.50;99.90;;;;;;5089347;28;20066;-64
2022/02/01 10:42:08;;;;;;;4.57;2.70;;;6.60;99.90;;;;;;5080874;28;20062;-64
2022/02/01 10:44:41;;;;;;;2.95;2.10;;;6.70;99.90;;;;;;5073800;28;20100;-64
2022/02/01 10:47:08;;;;;;;3.90;2.58;;;6.80;99.90;;;;;;5077862;28;20045;-64
2022/02/01 10:49:36;;;;;;;4.63;2.50;;;6.70;99.90;;;;;;5077690;28;20053;-64
2022/02/01 10:52:05;;;;;;;2.65;2.03;;;6.90;99.90;;;;;;5078051;28;20125;-64
2022/02/01 10:54:32;;;;;;;4.07;2.50;;;6.80;99.90;;;;;;5095621;28;20105;-64
2022/02/01 10:56:59;;;;;;;2.90;2.20;;;6.90;99.90;;;;;;5061858;28;20129;-65
2022/02/01 10:59:25;;;;;;;3.33;2.65;;;6.90;99.90;;;;;;5089544;28;20052;-65
2022/02/01 11:01:54;;;;;;;4.03;2.60;;;6.90;99.90;;;;;;5079672;28;20466;-64
2022/02/01 11:04:21;;;;;;;2.95;1.95;;;7.00;99.90;;;;;;5058723;28;20048;-64
2022/02/01 11:06:51;;;;;;;3.97;2.10;;;6.90;99.90;;;;;;5071131;28;20212;-64
2022/02/01 11:09:20;;;;;;;3.42;2.10;;;6.80;99.90;;;;;;5062195;28;20079;-64
2022/02/01 11:12:13;;;;;;;3.38;2.30;;;7.00;99.90;;;;;;5091726;28;20049;-64
2022/02/01 11:14:46;;;;;;;3.55;2.28;;;6.90;99.90;;;;;;5069162;28;20067;-64
2022/02/01 11:17:18;;;;;;;5.25;2.92;;;7.10;99.90;;;;;;5086514;28;20053;-64
2022/02/01 11:19:47;;;;;;;4.93;2.63;;;7.20;99.90;;;;;;5096283;28;20612;-64
2022/02/01 11:22:32;;;;;;;3.80;2.42;;;7.00;99.90;;;;;;5062057;28;20562;-64
2022/02/01 11:25:25;;;;;;;5.28;3.08;;;7.20;99.90;;;;;;5096818;27;20142;-63
2022/02/01 11:30:41;;;;;;;3.57;2.23;;;7.40;99.90;;;;;;5073682;28;20409;-63
2022/02/01 11:33:09;;;;;;;2.70;1.85;;;7.40;99.90;;;;;;5061438;28;20045;-64
2022/02/01 11:35:36;;;;;;;6.63;2.42;;;7.50;99.90;;;;;;5057179;28;20041;-64
2022/02/01 11:38:06;;;;;;;5.22;2.22;;;7.50;99.90;;;;;;5045634;28;20083;-65
2022/02/01 11:40:41;;;;;;;5.78;2.88;;;7.50;99.90;;;;;;5076363;28;20045;-64
2022/02/01 11:43:09;;;;;;;4.97;2.47;;;7.40;99.90;;;;;;5048583;28;20049;-63
2022/02/01 11:45:38;;;;;;;6.18;2.40;;;7.50;99.90;;;;;;5091324;28;20048;-63
2022/02/01 11:48:20;;;;;;;4.88;2.30;;;7.60;99.90;;;;;;5084246;28;20041;-64
2022/02/01 11:51:01;;;;;;;5.18;2.30;;;7.50;99.90;;;;;;5074550;28;20438;-65
2022/02/01 11:53:34;;;;;;;4.45;2.13;;;7.50;99.90;;;;;;5034514;28;20041;-64
2022/02/01 11:56:01;;;;;;;6.53;2.45;;;7.60;99.90;;;;;;5060187;28;20057;-64
2022/02/01 11:58:36;;;;;;;5.25;2.20;;;7.60;99.90;;;;;;5051023;28;20088;-65
2022/02/01 12:01:05;;;;;;;5.50;2.65;;;7.70;99.90;;;;;;5092762;28;20052;-65
2022/02/01 12:03:39;;;;;;;5.03;2.70;;;7.70;99.90;;;;;;5053091;28;20041;-64
2022/02/01 12:06:10;;;;;;;7.63;2.17;;;7.70;99.90;;;;;;5054647;28;20055;-66
2022/02/01 12:08:38;;;;;;;;;;;7.60;99.90;;;;;;5052233;28;20049;-67
2022/02/01 12:11:10;;;;;;;4.40;2.00;;;7.80;99.90;;;;;;5089982;28;19920;-65
2022/02/01 12:13:36;;;;;;;4.60;1.98;;;7.70;99.90;;;;;;5052424;28;20049;-65
2022/02/01 12:16:07;;;;;;;4.07;2.47;;;7.80;99.90;;;;;;5087010;28;20052;-65
2022/02/01 12:18:55;;;;;;;4.00;1.90;;;7.80;99.90;;;;;;5056684;28;20056;-65
2022/02/01 12:21:37;;;;;;;4.60;2.00;;;7.90;99.90;;;;;;5053651;28;20070;-65
2022/02/01 12:24:04;;;;;;;7.22;2.10;;;7.90;99.90;;;;;;5084620;28;20054;-65
2022/02/01 12:26:35;;;;;;;3.80;2.00;;;7.80;99.90;;;;;;5056967;28;20430;-65
2022/02/01 12:29:03;;;;;;;2.92;1.90;;;7.80;99.90;;;;;;5058139;28;20532;-65
2022/02/01 12:31:30;;;;;;;2.95;1.60;;;7.80;99.90;;;;;;5084615;28;20507;-65
2022/02/01 12:33:58;;;;;;;5.07;2.20;;;8.00;99.90;;;;;;5091156;28;20056;-65
2022/02/01 12:36:31;;;;;;;5.82;2.38;;;8.10;99.90;;;;;;5029494;28;20056;-65
2022/02/01 12:39:26;;;;;;;5.00;2.42;;;8.00;99.90;;;;;;5057700;28;20050;-65
2022/02/01 12:41:59;;;;;;;8.82;3.28;;;7.90;99.90;;;;;;5064743;28;20079;-65
2022/02/01 12:47:01;;;;;;;13.27;2.70;;;8.20;99.90;;;;;;5064756;28;20059;-66
2022/02/01 12:49:39;;;;;;;13.52;3.10;;;8.20;99.90;;;;;;5035586;28;20285;-66
2022/02/01 12:52:19;;;;;;;7.85;3.08;;;8.40;99.90;;;;;;5067041;28;20052;-65
2022/02/01 12:54:46;;;;;;;12.45;3.42;;;8.30;99.90;;;;;;5033390;28;20045;-65
2022/02/01 12:57:14;;;;;;;13.23;3.78;;;8.20;99.90;;;;;;5066696;28;20056;-65
2022/02/01 12:59:43;;;;;;;12.00;3.38;;;8.30;99.90;;;;;;5045275;28;20105;-65
2022/02/01 13:02:14;;;;;;;10.57;3.10;;;8.40;99.90;;;;;;5030386;28;20132;-65
2022/02/01 13:04:40;;;;;;;14.45;3.35;;;8.30;99.90;;;;;;5035351;28;20049;-65
2022/02/01 13:07:30;;;;;;;16.30;3.33;;;8.40;99.90;;;;;;5035082;28;20417;-65
2022/02/01 13:13:17;;;;;;;16.52;3.40;;;8.50;99.90;;;;;;5019951;28;20140;-66
2022/02/01 13:15:46;;;;;;;15.05;3.85;;;8.40;99.90;;;;;;5057611;28;20116;-65
2022/02/01 13:21:23;;;;;;;15.60;3.45;;;8.60;99.90;;;;;;5066039;28;19921;-65
2022/02/01 13:23:55;;;;;;;21.50;3.85;;;8.70;99.90;;;;;;5021557;28;20423;-65
2022/02/01 13:26:25;;;;;;;18.50;3.08;;;8.60;99.90;;;;;;5064600;28;20053;-65
2022/02/01 13:28:58;;;;;;;18.98;3.33;;;8.70;99.90;;;;;;5039637;28;20080;-65
2022/02/01 13:31:29;;;;;;;26.27;4.40;;;8.70;99.90;;;;;;5065165;28;20056;-65
2022/02/01 13:34:03;;;;;;;21.20;3.45;;;8.70;99.90;;;;;;5032640;28;20111;-65
2022/02/01 13:36:46;;;;;;;24.00;3.55;;;8.90;99.90;;;;;;5058018;28;20073;-66
2022/02/01 13:39:38;;;;;;;26.70;3.92;;;8.80;99.90;;;;;;5067122;28;20568;-65
2022/02/01 13:42:07;;;;;;;20.30;3.53;;;8.70;99.90;;;;;;5070619;28;20417;-65
2022/02/01 13:44:32;;;;;;;23.13;3.20;;;8.80;99.90;;;;;;5033155;28;20483;-66
2022/02/01 13:47:10;;;;;;;23.30;3.80;;;8.70;99.90;;;;;;5034951;28;20053;-65
2022/02/01 13:49:37;;;;;;;17.52;3.08;;;8.70;99.90;;;;;;5030838;28;20040;-65
2022/02/01 13:52:06;;;;;;;15.77;2.72;;;8.80;99.90;;;;;;5035958;28;20049;-65
2022/02/01 13:54:39;;;;;;;23.48;3.33;;;8.70;99.90;;;;;;5031437;28;20054;-66
2022/02/01 13:57:17;;;;;;;26.40;3.80;;;8.70;99.90;;;;;;5082648;28;20412;-65
2022/02/01 13:59:44;;;;;;;19.98;4.10;;;8.70;99.90;;;;;;5035322;28;20181;-65
2022/02/01 14:02:19;;;;;;;23.45;3.72;;;8.90;99.90;;;;;;5035790;28;20041;-65
2022/02/01 14:05:05;;;;;;;22.55;4.53;;;8.90;99.90;;;;;;5035744;28;20056;-65
2022/02/01 14:13:43;;;;;;;13.82;3.25;;;8.80;99.90;;;;;;5044345;28;20429;-65
2022/02/01 14:26:44;;;;;;;22.42;3.72;;;8.70;99.90;;;;;;5073052;28;20055;-66
2022/02/01 14:32:07;;;;;;;28.23;4.10;;;8.70;99.90;;;;;;5062609;28;20141;-65
2022/02/01 14:34:35;;;;;;;23.33;3.13;;;8.80;99.90;;;;;;5033576;28;20045;-64
2022/02/01 14:37:08;;;;;;;23.50;3.83;;;8.80;99.90;;;;;;5040661;28;20045;-65
2022/02/01 14:45:03;;;;;;;22.80;5.00;;;8.80;99.90;;;;;;5036188;28;20067;-64
2022/02/01 14:47:28;;;;;;;24.15;4.63;;;8.90;99.90;;;;;;5072579;28;20060;-65
2022/02/01 14:49:56;;;;;;;22.85;4.32;;;8.90;99.90;;;;;;5038356;28;20056;-65
2022/02/01 14:52:21;;;;;;;22.08;4.38;;;8.80;99.90;;;;;;5033229;28;20063;-65
2022/02/01 14:54:53;;;;;;;21.73;3.28;;;8.90;99.90;;;;;;5048175;28;20038;-65
2022/02/01 15:13:20;;;;;;;25.35;4.15;;;8.80;99.90;;;;;;5070138;28;20087;-64